Time;durP1;ratioP1;P1;durP2;ratioP2;P2;SDS_P1;SDS_P2;PMS_P1;PMS_P2;Temp;Humidity;BMP_temperature;BMP_pressure;BME280_temperature;BME280_humidity;BME280_pressure;Samples;Min_cycle;Max_cycle;Signal;HPM_P1;HPM_P2
2022/10/07 00:01:39;;;;;;;8.43;1.50;;;13.00;97.60;;;;;;5173810;27;20039;-73
2022/10/07 00:04:05;;;;;;;8.63;1.30;;;13.00;97.70;;;;;;5140387;27;20039;-73
2022/10/07 00:06:31;;;;;;;7.22;1.27;;;13.10;97.70;;;;;;5140053;27;20412;-73
2022/10/07 00:08:58;;;;;;;8.23;1.92;;;12.90;97.60;;;;;;5138931;27;20035;-73
2022/10/07 00:11:28;;;;;;;12.10;1.73;;;12.90;97.90;;;;;;5140192;27;20091;-73
2022/10/07 00:13:59;;;;;;;9.50;1.73;;;12.90;97.90;;;;;;5139957;27;20047;-73
2022/10/07 00:16:28;;;;;;;7.63;1.60;;;13.00;97.80;;;;;;5139772;27;20332;-73
2022/10/07 00:18:56;;;;;;;10.05;1.40;;;12.90;97.80;;;;;;5140156;27;20051;-73
2022/10/07 00:21:24;;;;;;;9.30;1.95;;;12.90;97.90;;;;;;5139034;27;20050;-73
2022/10/07 00:23:50;;;;;;;10.27;1.80;;;12.80;97.90;;;;;;5138931;27;20082;-73
2022/10/07 00:26:19;;;;;;;11.80;1.55;;;12.80;98.00;;;;;;5139726;27;20039;-73
2022/10/07 00:28:45;;;;;;;9.15;1.70;;;12.80;98.00;;;;;;5139929;27;20035;-73
2022/10/07 00:31:17;;;;;;;16.48;2.22;;;12.90;98.00;;;;;;5139814;27;20134;-73
2022/10/07 00:33:43;;;;;;;13.40;1.58;;;12.90;97.90;;;;;;5139626;27;20459;-73
2022/10/07 00:36:22;;;;;;;16.83;1.95;;;12.90;98.10;;;;;;5139795;27;20039;-74
2022/10/07 00:38:54;;;;;;;8.18;1.30;;;12.80;98.00;;;;;;5138795;27;20429;-73
2022/10/07 00:41:25;;;;;;;8.90;1.50;;;12.90;98.00;;;;;;5139741;27;20035;-73
2022/10/07 00:43:51;;;;;;;11.20;1.65;;;12.80;98.00;;;;;;5138195;27;20051;-73
2022/10/07 00:46:36;;;;;;;13.45;1.85;;;12.80;98.10;;;;;;5139183;27;20324;-73
2022/10/07 00:49:06;;;;;;;8.63;1.83;;;12.90;98.00;;;;;;5139651;27;20041;-73
2022/10/07 00:51:34;;;;;;;9.00;1.70;;;12.80;98.10;;;;;;5138532;27;20042;-73
2022/10/07 00:54:02;;;;;;;13.55;1.85;;;12.80;97.90;;;;;;5138154;27;20045;-73
2022/10/07 00:56:29;;;;;;;16.63;1.75;;;12.60;98.10;;;;;;5139121;27;20332;-73
2022/10/07 00:58:57;;;;;;;7.75;1.42;;;12.60;98.20;;;;;;5138303;27;20058;-73
2022/10/07 01:01:23;;;;;;;9.35;1.50;;;12.70;98.20;;;;;;5138043;27;20070;-73
2022/10/07 01:03:49;;;;;;;11.52;2.20;;;12.70;98.10;;;;;;5120944;27;20079;-73
2022/10/07 01:06:15;;;;;;;5.80;1.30;;;12.70;98.00;;;;;;5137937;27;20043;-73
2022/10/07 01:08:44;;;;;;;10.57;1.63;;;12.60;98.30;;;;;;5138813;27;20035;-73
2022/10/07 01:11:12;;;;;;;11.80;1.80;;;12.70;98.20;;;;;;5137791;27;20035;-73
2022/10/07 01:14:11;;;;;;;6.07;1.38;;;12.70;98.20;;;;;;5137699;27;20366;-73
2022/10/07 01:16:56;;;;;;;8.57;1.65;;;12.70;98.20;;;;;;5138944;27;20043;-73
2022/10/07 01:20:05;;;;;;;9.65;1.85;;;12.80;98.10;;;;;;5137649;27;20043;-73
2022/10/07 01:22:37;;;;;;;10.40;1.98;;;12.80;98.00;;;;;;5138718;27;20042;-73
2022/10/07 01:25:35;;;;;;;12.98;2.35;;;12.70;98.10;;;;;;5137307;27;20459;-74
2022/10/07 01:28:09;;;;;;;8.68;2.10;;;12.70;98.10;;;;;;5137463;27;20092;-73
2022/10/07 01:30:40;;;;;;;9.80;1.70;;;12.70;98.10;;;;;;5137712;27;20047;-74
2022/10/07 01:33:13;;;;;;;6.43;2.05;;;12.70;98.00;;;;;;5139558;27;20035;-73
2022/10/07 01:35:42;;;;;;;12.73;2.38;;;12.60;98.20;;;;;;5138608;27;20046;-73
2022/10/07 01:38:10;;;;;;;9.50;1.90;;;12.50;98.10;;;;;;5137230;27;20047;-73
2022/10/07 01:40:42;;;;;;;7.18;2.30;;;12.50;98.20;;;;;;5138542;27;20082;-73
2022/10/07 01:43:08;;;;;;;18.20;2.72;;;12.50;98.30;;;;;;5137154;27;20317;-73
2022/10/07 01:45:39;;;;;;;9.65;2.25;;;12.50;98.20;;;;;;5137984;27;20051;-73
2022/10/07 01:48:05;;;;;;;12.68;2.28;;;12.60;98.30;;;;;;5138113;27;20076;-73
2022/10/07 01:50:31;;;;;;;10.25;2.10;;;12.60;98.20;;;;;;5136980;27;20110;-73
2022/10/07 01:53:19;;;;;;;14.60;1.90;;;12.60;98.20;;;;;;5119941;27;20038;-73
2022/10/07 01:56:06;;;;;;;8.93;1.42;;;12.60;98.20;;;;;;5137007;27;20428;-73
2022/10/07 01:58:48;;;;;;;14.98;2.47;;;12.60;98.30;;;;;;5138270;27;20053;-73
2022/10/07 02:01:23;;;;;;;14.35;2.55;;;12.50;98.20;;;;;;5136919;27;20051;-73
2022/10/07 02:03:51;;;;;;;10.80;2.10;;;12.60;98.30;;;;;;5137017;27;20058;-73
2022/10/07 02:06:51;;;;;;;10.23;2.45;;;12.50;98.10;;;;;;5137043;27;20047;-73
2022/10/07 02:09:24;;;;;;;13.43;2.58;;;12.60;98.20;;;;;;5125826;27;20051;-73
2022/10/07 02:11:57;;;;;;;10.52;2.15;;;12.60;98.30;;;;;;5136736;27;20334;-73
2022/10/07 02:14:28;;;;;;;15.55;2.78;;;12.60;98.30;;;;;;5137385;27;20443;-73
2022/10/07 02:17:12;;;;;;;14.70;2.55;;;12.50;98.30;;;;;;5136985;27;20049;-73
2022/10/07 02:19:44;;;;;;;19.30;2.78;;;12.50;98.30;;;;;;5137751;27;20039;-73
2022/10/07 02:22:12;;;;;;;10.80;1.90;;;12.50;98.40;;;;;;5137600;27;20035;-73
2022/10/07 02:24:40;;;;;;;16.27;2.20;;;12.50;98.40;;;;;;5136517;27;20043;-73
2022/10/07 02:27:10;;;;;;;10.75;2.72;;;12.60;98.30;;;;;;5137635;27;20027;-73
2022/10/07 02:29:38;;;;;;;11.75;2.53;;;12.50;98.30;;;;;;5136754;28;20046;-73
2022/10/07 02:32:08;;;;;;;8.93;2.00;;;12.40;98.30;;;;;;5137848;27;20035;-73
2022/10/07 02:34:35;;;;;;;12.25;2.38;;;12.30;98.50;;;;;;5136531;27;20047;-73
2022/10/07 02:37:06;;;;;;;15.55;3.28;;;12.20;98.50;;;;;;5141587;27;20515;-73
2022/10/07 02:39:32;;;;;;;12.57;2.67;;;12.20;98.50;;;;;;5142156;27;20042;-73
2022/10/07 02:42:22;;;;;;;15.00;2.70;;;12.10;98.60;;;;;;5140631;27;20069;-73
2022/10/07 02:44:58;;;;;;;10.77;2.15;;;12.20;98.70;;;;;;5141489;27;20122;-73
2022/10/07 02:47:33;;;;;;;11.93;2.45;;;12.30;98.70;;;;;;5140948;27;20039;-73
2022/10/07 02:50:02;;;;;;;16.42;2.53;;;12.30;98.60;;;;;;5141947;27;20118;-73
2022/10/07 02:52:30;;;;;;;16.90;2.80;;;12.20;98.50;;;;;;5141838;27;20050;-73
2022/10/07 02:55:03;;;;;;;11.07;2.20;;;12.20;98.60;;;;;;5140428;27;20051;-73
2022/10/07 02:57:32;;;;;;;12.43;2.72;;;12.10;98.70;;;;;;5141827;27;20039;-73
2022/10/07 03:00:00;;;;;;;14.35;2.95;;;12.10;98.70;;;;;;5141712;27;20088;-73
2022/10/07 03:02:45;;;;;;;12.52;2.35;;;12.20;98.70;;;;;;5140681;27;20035;-73
2022/10/07 03:05:12;;;;;;;17.10;2.90;;;12.20;98.80;;;;;;5140199;27;20340;-73
2022/10/07 03:07:40;;;;;;;16.38;2.78;;;12.10;98.70;;;;;;5140261;27;20047;-73
2022/10/07 03:10:07;;;;;;;14.48;2.97;;;12.10;98.90;;;;;;5140534;27;20035;-73
2022/10/07 03:12:33;;;;;;;14.18;3.03;;;12.00;98.90;;;;;;5141492;27;20058;-73
2022/10/07 03:14:59;;;;;;;18.70;3.30;;;12.00;99.20;;;;;;5140992;27;20043;-73
2022/10/07 03:17:24;;;;;;;12.32;2.40;;;12.00;99.00;;;;;;5141288;27;20046;-73
2022/10/07 03:19:50;;;;;;;13.77;2.55;;;12.20;99.00;;;;;;5141281;27;20058;-73
2022/10/07 03:22:16;;;;;;;19.42;3.67;;;12.10;98.90;;;;;;5141227;27;20043;-73
2022/10/07 03:24:41;;;;;;;10.75;2.80;;;12.00;98.90;;;;;;5140171;27;20071;-73
2022/10/07 03:27:07;;;;;;;14.35;2.72;;;11.90;99.10;;;;;;5141145;27;20035;-73
2022/10/07 03:29:34;;;;;;;13.98;2.80;;;11.90;99.10;;;;;;5141117;27;20039;-73
2022/10/07 03:32:00;;;;;;;16.25;2.72;;;11.80;99.20;;;;;;5139729;27;20043;-73
2022/10/07 03:34:27;;;;;;;15.57;3.53;;;11.80;99.20;;;;;;5141017;27;20042;-73
2022/10/07 03:36:54;;;;;;;16.15;2.88;;;11.70;99.20;;;;;;5140949;27;20362;-73
2022/10/07 03:39:20;;;;;;;20.60;3.67;;;11.80;99.40;;;;;;5139609;27;20043;-73
2022/10/07 03:41:47;;;;;;;20.48;2.80;;;11.70;99.30;;;;;;5140721;27;20058;-74
2022/10/07 03:44:13;;;;;;;17.20;3.17;;;11.70;99.40;;;;;;5140421;27;20043;-73
2022/10/07 03:46:39;;;;;;;15.50;3.17;;;11.70;99.50;;;;;;5121935;27;20340;-73
2022/10/07 03:49:05;;;;;;;13.77;2.75;;;11.70;99.50;;;;;;5139758;27;20035;-73
2022/10/07 03:51:31;;;;;;;18.80;2.85;;;11.80;99.50;;;;;;5139682;27;20042;-73
2022/10/07 03:53:57;;;;;;;12.85;2.70;;;11.80;99.40;;;;;;5140665;27;20066;-73
2022/10/07 03:56:23;;;;;;;11.65;3.30;;;11.80;99.40;;;;;;5140306;27;20434;-73
2022/10/07 03:58:49;;;;;;;8.40;2.60;;;11.90;99.40;;;;;;5140548;27;20043;-72
2022/10/07 04:01:14;;;;;;;13.20;3.13;;;11.90;99.40;;;;;;5140475;27;20035;-73
2022/10/07 04:03:40;;;;;;;16.92;3.10;;;11.90;99.40;;;;;;5140410;27;20477;-73
2022/10/07 04:06:06;;;;;;;12.77;3.58;;;11.90;99.30;;;;;;5140429;27;20027;-73
2022/10/07 04:08:33;;;;;;;11.70;2.90;;;12.00;99.30;;;;;;5139001;27;20432;-73
2022/10/07 04:11:00;;;;;;;14.57;2.45;;;11.90;99.30;;;;;;5138964;27;20462;-73
2022/10/07 04:13:27;;;;;;;17.15;3.50;;;11.90;99.40;;;;;;5139279;27;20359;-73
2022/10/07 04:15:53;;;;;;;16.67;3.60;;;11.90;99.30;;;;;;5138537;27;20117;-73
2022/10/07 04:18:19;;;;;;;17.50;3.20;;;11.80;99.30;;;;;;5138841;27;20103;-73
2022/10/07 04:20:45;;;;;;;11.48;3.00;;;11.70;99.40;;;;;;5138800;27;20055;-73
2022/10/07 04:23:11;;;;;;;13.93;3.40;;;11.70;99.50;;;;;;5139763;27;20038;-73
2022/10/07 04:25:42;;;;;;;13.05;3.50;;;11.70;99.60;;;;;;5138990;27;20122;-73
2022/10/07 04:28:14;;;;;;;15.43;3.67;;;11.70;99.50;;;;;;5139789;27;20046;-73
2022/10/07 04:30:42;;;;;;;12.52;3.03;;;11.80;99.60;;;;;;5138719;27;20067;-73
2022/10/07 04:33:08;;;;;;;17.75;3.15;;;11.70;99.60;;;;;;5138840;27;20051;-73
2022/10/07 04:35:38;;;;;;;19.88;4.20;;;11.70;99.60;;;;;;5139580;27;20039;-73
2022/10/07 04:38:07;;;;;;;15.25;3.60;;;11.60;99.60;;;;;;5139841;27;20047;-73
2022/10/07 04:40:32;;;;;;;13.75;4.10;;;11.50;99.70;;;;;;5121868;27;20123;-73
2022/10/07 04:45:42;;;;;;;17.63;3.45;;;11.60;99.90;;;;;;5139157;27;20340;-73
2022/10/07 04:48:08;;;;;;;16.52;4.22;;;11.60;99.80;;;;;;5139505;27;20039;-73
2022/10/07 04:50:37;;;;;;;20.80;4.13;;;11.50;99.90;;;;;;5138181;27;20082;-73
2022/10/07 04:53:07;;;;;;;12.95;3.28;;;11.60;99.90;;;;;;5139299;27;20043;-73
2022/10/07 04:55:40;;;;;;;15.00;3.40;;;11.50;99.90;;;;;;5138173;27;20446;-73
2022/10/07 04:58:07;;;;;;;16.77;3.58;;;11.60;99.90;;;;;;5137935;27;20488;-73
2022/10/07 05:00:33;;;;;;;19.42;3.90;;;11.70;99.90;;;;;;5138737;27;20412;-73
2022/10/07 05:02:59;;;;;;;18.58;3.83;;;11.60;99.90;;;;;;5138213;27;20046;-73
2022/10/07 05:05:26;;;;;;;16.77;4.10;;;11.70;99.90;;;;;;5138601;27;20039;-73
2022/10/07 05:07:53;;;;;;;19.52;3.92;;;11.70;99.90;;;;;;5137885;27;20035;-73
2022/10/07 05:10:19;;;;;;;13.38;3.45;;;11.70;99.80;;;;;;5137855;27;20056;-73
2022/10/07 05:12:45;;;;;;;15.80;3.55;;;11.60;99.90;;;;;;5139099;27;20039;-73
2022/10/07 05:15:11;;;;;;;19.98;5.13;;;11.70;99.90;;;;;;5138652;27;20451;-73
2022/10/07 05:17:39;;;;;;;20.92;4.65;;;11.70;99.90;;;;;;5138769;27;20047;-73
2022/10/07 05:20:06;;;;;;;15.07;4.07;;;11.70;99.90;;;;;;5138974;27;20095;-73
2022/10/07 05:22:32;;;;;;;15.30;4.18;;;11.70;99.90;;;;;;5120465;27;20039;-73
2022/10/07 05:24:58;;;;;;;18.98;3.97;;;11.60;99.90;;;;;;5138494;27;20039;-73
2022/10/07 05:27:24;;;;;;;18.83;4.43;;;11.60;99.90;;;;;;5138531;27;20046;-73
2022/10/07 05:29:49;;;;;;;14.82;3.78;;;11.50;99.90;;;;;;5138754;27;20083;-73
2022/10/07 05:32:15;;;;;;;24.98;4.43;;;11.50;99.90;;;;;;5138405;27;20324;-73
2022/10/07 05:34:43;;;;;;;15.60;4.30;;;11.60;99.90;;;;;;5138653;27;20039;-73
2022/10/07 05:37:10;;;;;;;17.30;4.00;;;11.60;99.90;;;;;;5137334;27;20043;-73
2022/10/07 05:39:36;;;;;;;22.73;4.18;;;11.70;99.90;;;;;;5137395;27;20031;-73
2022/10/07 05:42:02;;;;;;;19.23;4.43;;;11.60;99.90;;;;;;5138089;27;20135;-73
2022/10/07 05:44:31;;;;;;;20.65;4.40;;;11.70;99.90;;;;;;5136795;27;20063;-74
2022/10/07 05:46:57;;;;;;;20.15;4.40;;;11.80;99.90;;;;;;5138476;27;20062;-73
2022/10/07 05:49:23;;;;;;;23.15;4.40;;;11.80;99.90;;;;;;5137141;27;20039;-73
2022/10/07 05:51:50;;;;;;;13.68;3.50;;;11.70;99.90;;;;;;5137032;27;20041;-73
2022/10/07 05:54:16;;;;;;;15.45;3.40;;;11.70;99.90;;;;;;5137021;27;20039;-73
2022/10/07 05:56:42;;;;;;;20.65;3.97;;;11.70;99.90;;;;;;5137302;27;20117;-73
2022/10/07 05:59:07;;;;;;;23.55;5.32;;;11.80;99.90;;;;;;5137304;27;20118;-73
2022/10/07 06:01:33;;;;;;;21.77;4.15;;;11.70;99.90;;;;;;5137946;27;20054;-73
2022/10/07 06:03:59;;;;;;;23.23;4.30;;;11.70;99.90;;;;;;5136808;27;20088;-73
2022/10/07 06:06:25;;;;;;;22.73;4.13;;;11.70;99.90;;;;;;5137178;27;20074;-73
2022/10/07 06:08:52;;;;;;;19.85;4.45;;;11.80;99.90;;;;;;5137695;27;20416;-73
2022/10/07 06:14:03;;;;;;;21.70;4.32;;;11.80;99.90;;;;;;5137003;27;20381;-73
2022/10/07 06:16:29;;;;;;;19.30;4.20;;;11.80;99.90;;;;;;5137679;27;20079;-73
2022/10/07 06:18:56;;;;;;;18.45;4.15;;;11.90;99.90;;;;;;5138020;27;20122;-72
2022/10/07 06:21:26;;;;;;;21.73;4.97;;;11.90;99.90;;;;;;5137903;27;20035;-73
2022/10/07 06:23:53;;;;;;;15.82;4.50;;;11.90;99.90;;;;;;5139348;27;20050;-70
2022/10/07 06:26:20;;;;;;;26.23;5.32;;;11.90;99.90;;;;;;5138490;27;20031;-71
2022/10/07 06:28:46;;;;;;;23.35;4.85;;;11.90;99.90;;;;;;5137883;27;20043;-71
2022/10/07 06:31:24;;;;;;;18.83;4.47;;;11.90;99.90;;;;;;5136530;27;20408;-71
2022/10/07 06:33:50;;;;;;;24.85;4.68;;;11.90;99.90;;;;;;5137856;27;20075;-72
2022/10/07 06:36:16;;;;;;;21.27;4.35;;;11.90;99.90;;;;;;5136469;28;20050;-70
2022/10/07 06:38:47;;;;;;;21.80;5.45;;;11.90;99.90;;;;;;5136721;28;20054;-70
2022/10/07 06:41:13;;;;;;;18.27;4.40;;;12.00;99.90;;;;;;5137756;27;20110;-69
2022/10/07 06:43:39;;;;;;;21.67;5.38;;;12.10;99.90;;;;;;5137285;27;20074;-69
2022/10/07 06:46:06;;;;;;;13.15;4.63;;;12.00;99.90;;;;;;5136971;27;20431;-70
2022/10/07 06:48:33;;;;;;;21.73;4.18;;;12.00;99.90;;;;;;5137699;27;20084;-70
2022/10/07 06:51:02;;;;;;;21.15;5.25;;;12.10;99.90;;;;;;5137647;27;20071;-71
2022/10/07 06:53:29;;;;;;;22.40;4.95;;;12.20;99.90;;;;;;5137647;27;20083;-70
2022/10/07 06:55:56;;;;;;;19.40;4.40;;;12.20;99.90;;;;;;5137580;27;20046;-71
2022/10/07 06:58:25;;;;;;;19.73;4.93;;;12.20;99.90;;;;;;5137306;27;20050;-71
2022/10/07 07:00:52;;;;;;;19.77;4.35;;;12.20;99.90;;;;;;5137270;27;20421;-71
2022/10/07 07:03:17;;;;;;;28.25;5.43;;;12.20;99.90;;;;;;5137239;27;20448;-70
2022/10/07 07:05:45;;;;;;;19.42;4.32;;;12.30;99.90;;;;;;5137468;27;20091;-70
2022/10/07 07:08:11;;;;;;;18.75;4.20;;;12.20;99.90;;;;;;5137257;27;20051;-70
2022/10/07 07:10:44;;;;;;;14.68;4.40;;;12.00;99.90;;;;;;5137535;27;20031;-71
2022/10/07 07:13:11;;;;;;;12.93;3.88;;;12.10;99.90;;;;;;5137527;27;20042;-70
2022/10/07 07:15:37;;;;;;;20.92;4.45;;;12.20;99.90;;;;;;5137119;28;20316;-70
2022/10/07 07:18:05;;;;;;;19.23;4.30;;;12.30;99.90;;;;;;5137126;27;20050;-70
2022/10/07 07:20:36;;;;;;;18.70;4.40;;;12.30;99.90;;;;;;5137407;27;20110;-69
2022/10/07 07:23:03;;;;;;;21.98;4.95;;;12.30;99.90;;;;;;5141092;27;20377;-70
2022/10/07 07:25:31;;;;;;;19.55;4.88;;;12.30;99.90;;;;;;5141137;27;20095;-70
2022/10/07 07:28:00;;;;;;;25.92;4.95;;;12.50;99.90;;;;;;5139830;27;20050;-70
2022/10/07 07:30:27;;;;;;;23.45;4.68;;;12.50;99.90;;;;;;5141083;27;20301;-70
2022/10/07 07:32:54;;;;;;;19.60;4.63;;;12.50;99.90;;;;;;5143442;27;20088;-70
2022/10/07 07:35:24;;;;;;;22.83;4.50;;;12.60;99.90;;;;;;5141980;27;20043;-69
2022/10/07 07:37:50;;;;;;;22.48;4.10;;;12.60;99.90;;;;;;5141031;27;20043;-70
2022/10/07 07:40:17;;;;;;;23.95;4.45;;;12.60;99.90;;;;;;5140598;27;20080;-71
2022/10/07 07:42:45;;;;;;;22.77;4.40;;;12.60;99.90;;;;;;5140576;27;20047;-70
2022/10/07 07:45:11;;;;;;;24.25;4.43;;;12.50;99.90;;;;;;5140023;27;20086;-71
2022/10/07 07:47:37;;;;;;;26.10;4.35;;;12.60;99.90;;;;;;5140472;27;20031;-70
2022/10/07 07:50:04;;;;;;;17.98;4.55;;;12.70;99.90;;;;;;5140759;27;20038;-70
2022/10/07 07:52:30;;;;;;;18.33;4.50;;;12.80;99.90;;;;;;5140679;27;20121;-69
2022/10/07 07:54:57;;;;;;;19.38;4.60;;;12.90;99.90;;;;;;5140664;27;20313;-69
2022/10/07 07:57:25;;;;;;;21.88;4.88;;;13.00;99.90;;;;;;5140647;27;20329;-70
2022/10/07 07:59:50;;;;;;;14.20;3.92;;;13.10;99.90;;;;;;5140508;27;20039;-69
2022/10/07 08:02:16;;;;;;;22.33;3.60;;;13.20;99.90;;;;;;5140144;27;20043;-70
2022/10/07 08:04:42;;;;;;;21.73;4.30;;;13.20;99.90;;;;;;5140531;27;20067;-69
2022/10/07 08:07:11;;;;;;;18.95;3.67;;;13.20;99.90;;;;;;5140426;27;20320;-69
2022/10/07 08:09:38;;;;;;;17.75;3.65;;;13.20;99.90;;;;;;5140307;27;20440;-70
2022/10/07 08:12:04;;;;;;;21.85;3.90;;;13.30;99.90;;;;;;5140412;27;20062;-70
2022/10/07 08:14:30;;;;;;;21.45;4.70;;;13.30;99.90;;;;;;5140341;27;20043;-70
2022/10/07 08:16:57;;;;;;;13.63;3.45;;;13.40;99.90;;;;;;5138536;27;20050;-70
2022/10/07 08:19:25;;;;;;;20.55;3.70;;;13.50;99.90;;;;;;5139885;27;20431;-70
2022/10/07 08:21:51;;;;;;;13.25;3.47;;;13.50;99.90;;;;;;5139846;27;20447;-69
2022/10/07 08:24:17;;;;;;;21.52;3.55;;;13.60;99.90;;;;;;5139738;27;20089;-71
2022/10/07 08:26:43;;;;;;;21.65;3.92;;;13.60;99.90;;;;;;5140058;27;20115;-70
2022/10/07 08:29:09;;;;;;;23.52;3.83;;;13.60;99.90;;;;;;5139722;27;20074;-71
2022/10/07 08:31:35;;;;;;;19.27;3.97;;;13.80;99.90;;;;;;5139669;27;20432;-71
2022/10/07 08:34:02;;;;;;;26.73;3.88;;;13.80;99.90;;;;;;5138643;27;20082;-70
2022/10/07 08:36:31;;;;;;;14.93;3.63;;;13.90;99.90;;;;;;5139891;27;20130;-88
2022/10/07 08:38:58;;;;;;;20.38;4.40;;;13.90;99.90;;;;;;5138525;27;20043;-71
2022/10/07 08:41:33;;;;;;;13.05;3.00;;;13.90;99.90;;;;;;5140070;27;20039;-71
2022/10/07 08:44:27;;;;;;;22.00;3.20;;;14.00;99.90;;;;;;5139253;27;20054;-70
2022/10/07 08:47:07;;;;;;;22.25;3.53;;;14.00;99.90;;;;;;5139299;27;20114;-71
2022/10/07 08:49:46;;;;;;;20.67;3.70;;;14.20;99.90;;;;;;5139666;27;20074;-70
2022/10/07 08:52:53;;;;;;;16.35;3.17;;;14.30;99.90;;;;;;5139961;27;20042;-70
2022/10/07 08:55:24;;;;;;;13.70;2.72;;;14.40;99.90;;;;;;5130803;27;20075;-70
2022/10/07 08:58:02;;;;;;;11.48;3.10;;;14.50;99.90;;;;;;5138443;27;20035;-70
2022/10/07 09:00:38;;;;;;;17.67;3.30;;;14.60;99.90;;;;;;5139451;27;20305;-70
2022/10/07 09:03:35;;;;;;;14.73;2.60;;;14.60;99.90;;;;;;5139412;27;20047;-70
2022/10/07 09:06:12;;;;;;;20.30;2.95;;;14.80;99.90;;;;;;5137949;27;20043;-70
2022/10/07 09:08:42;;;;;;;16.35;2.88;;;15.00;99.90;;;;;;5139283;27;20038;-70
2022/10/07 09:11:18;;;;;;;16.40;3.15;;;14.90;99.90;;;;;;5139219;27;20083;-73
2022/10/07 09:14:07;;;;;;;17.27;3.25;;;15.00;99.90;;;;;;5138902;27;20042;-69
2022/10/07 09:16:42;;;;;;;19.35;3.25;;;15.10;99.90;;;;;;5137993;27;20050;-69
2022/10/07 09:19:16;;;;;;;20.80;2.60;;;15.20;99.90;;;;;;5138701;27;20051;-69
2022/10/07 09:21:46;;;;;;;18.85;2.67;;;15.40;99.90;;;;;;5139017;27;20042;-69
2022/10/07 09:24:13;;;;;;;13.57;2.50;;;15.50;99.90;;;;;;5137565;27;20047;-69
2022/10/07 09:26:40;;;;;;;17.33;2.85;;;15.40;99.80;;;;;;5138591;27;20046;-69
2022/10/07 09:29:08;;;;;;;14.60;2.63;;;15.50;99.90;;;;;;5137856;27;20052;-69
2022/10/07 09:31:37;;;;;;;17.40;2.97;;;15.60;99.90;;;;;;5138785;27;20036;-69
2022/10/07 09:34:03;;;;;;;19.02;3.30;;;15.60;99.80;;;;;;5138765;27;20050;-69
2022/10/07 09:36:29;;;;;;;18.48;3.22;;;15.60;99.90;;;;;;5138675;27;20035;-69
2022/10/07 09:38:55;;;;;;;22.35;3.53;;;15.80;99.90;;;;;;5138659;27;20074;-68
2022/10/07 09:41:34;;;;;;;18.98;2.80;;;15.70;99.90;;;;;;5138358;27;20035;-72
2022/10/07 09:44:15;;;;;;;14.43;2.50;;;15.90;99.90;;;;;;5136625;27;20055;-67
2022/10/07 09:46:47;;;;;;;16.45;3.50;;;16.00;99.80;;;;;;5138113;27;20432;-66
2022/10/07 09:49:28;;;;;;;19.05;3.13;;;16.10;99.70;;;;;;5138830;27;20037;-80
2022/10/07 09:52:23;;;;;;;18.00;3.22;;;16.40;99.70;;;;;;5130426;27;20063;-69
2022/10/07 09:54:55;;;;;;;16.08;3.22;;;16.40;99.50;;;;;;5125724;27;20471;-68
2022/10/07 09:57:33;;;;;;;19.77;2.78;;;16.50;99.50;;;;;;5133604;27;20050;-69
2022/10/07 10:00:11;;;;;;;17.52;2.58;;;16.70;99.50;;;;;;5132086;27;20042;-67
2022/10/07 10:03:01;;;;;;;19.00;3.35;;;16.70;99.40;;;;;;5117524;28;20118;-67
2022/10/07 10:05:33;;;;;;;15.25;3.05;;;16.80;99.40;;;;;;5127458;27;20051;-69
2022/10/07 10:08:17;;;;;;;18.63;3.20;;;16.80;99.20;;;;;;5133824;27;20416;-70
2022/10/07 10:10:55;;;;;;;16.05;2.63;;;16.80;99.30;;;;;;5134390;27;20042;-69
2022/10/07 10:13:39;;;;;;;14.27;2.63;;;16.70;99.40;;;;;;5130895;27;20088;-70
2022/10/07 10:16:27;;;;;;;15.43;2.58;;;16.90;99.40;;;;;;5135628;27;20424;-80
2022/10/07 10:19:03;;;;;;;16.92;2.47;;;17.10;99.30;;;;;;5136694;27;20043;-76
2022/10/07 10:21:36;;;;;;;19.15;3.03;;;17.20;99.30;;;;;;5138061;27;20042;-68
2022/10/07 10:24:12;;;;;;;20.00;2.80;;;17.50;98.80;;;;;;5137955;27;20161;-70
2022/10/07 10:26:57;;;;;;;15.60;2.95;;;17.30;98.70;;;;;;5137963;27;20031;-70
2022/10/07 10:29:43;;;;;;;20.70;2.67;;;17.30;98.80;;;;;;5125628;27;20035;-70
2022/10/07 10:32:27;;;;;;;;;;;17.60;98.90;;;;;;5125966;27;20081;-69
2022/10/07 10:35:07;;;;;;;13.30;2.38;;;17.50;98.60;;;;;;5132143;28;19915;-68
2022/10/07 10:37:36;;;;;;;11.95;2.15;;;17.50;98.80;;;;;;5136603;27;20031;-71
2022/10/07 10:40:16;;;;;;;18.30;2.53;;;17.60;99.10;;;;;;5137498;27;20428;-68
2022/10/07 10:43:25;;;;;;;13.60;2.80;;;17.70;98.60;;;;;;5137321;28;20504;-70
2022/10/07 10:46:11;;;;;;;13.10;2.83;;;17.60;98.60;;;;;;5126860;28;20061;-70
2022/10/07 10:48:58;;;;;;;15.43;2.38;;;17.70;98.90;;;;;;5112732;27;20048;-71
2022/10/07 10:51:42;;;;;;;14.55;2.20;;;17.80;98.80;;;;;;5133191;28;20117;-70
2022/10/07 10:54:30;;;;;;;13.23;2.33;;;18.00;98.50;;;;;;5131391;28;20324;-71
2022/10/07 10:57:17;;;;;;;17.75;2.30;;;18.30;98.60;;;;;;5137307;27;20100;-72
2022/10/07 10:59:51;;;;;;;;;;;18.40;98.20;;;;;;5141229;27;20181;-70
2022/10/07 11:02:39;;;;;;;11.52;2.08;;;18.60;98.20;;;;;;5141788;27;19963;-70
2022/10/07 11:05:11;;;;;;;16.73;2.30;;;19.00;98.00;;;;;;5141302;27;20428;-70
2022/10/07 11:07:52;;;;;;;17.65;2.15;;;19.20;97.70;;;;;;5141605;27;20031;-69
2022/10/07 11:10:26;;;;;;;14.30;1.83;;;19.40;97.80;;;;;;5141581;27;20110;-70
2022/10/07 11:13:14;;;;;;;12.65;2.10;;;19.60;97.50;;;;;;5140234;27;20110;-70
2022/10/07 11:15:57;;;;;;;13.70;2.60;;;19.50;97.50;;;;;;5140817;27;20035;-70
2022/10/07 11:18:35;;;;;;;15.15;1.60;;;19.90;97.60;;;;;;5134383;27;20062;-73
2022/10/07 11:21:06;;;;;;;9.60;1.70;;;20.20;97.30;;;;;;5131238;27;20031;-76
2022/10/07 11:23:49;;;;;;;12.45;1.90;;;20.40;97.30;;;;;;5136176;27;20043;-70
2022/10/07 11:26:37;;;;;;;11.48;1.77;;;20.60;97.10;;;;;;5141080;27;20047;-69
2022/10/07 11:29:30;;;;;;;12.75;1.77;;;20.70;96.80;;;;;;5141722;27;20054;-69
2022/10/07 11:32:03;;;;;;;14.43;2.08;;;20.80;96.80;;;;;;5112971;27;20050;-70
2022/10/07 11:35:14;;;;;;;10.05;1.80;;;21.00;96.50;;;;;;5140839;27;20039;-70
2022/10/07 11:37:49;;;;;;;16.65;1.73;;;21.20;96.40;;;;;;5148551;27;20051;-70
2022/10/07 11:40:15;;;;;;;16.07;1.77;;;21.20;96.30;;;;;;5141059;27;20092;-70
2022/10/07 11:42:48;;;;;;;12.52;1.88;;;20.90;95.90;;;;;;5140650;27;20054;-70
2022/10/07 11:45:25;;;;;;;13.65;1.80;;;21.10;96.70;;;;;;5140431;27;20047;-70
2022/10/07 11:48:06;;;;;;;11.02;2.13;;;21.40;96.50;;;;;;5140920;27;20037;-70
2022/10/07 11:51:04;;;;;;;12.75;2.00;;;21.50;96.10;;;;;;5140892;27;20328;-70
2022/10/07 11:53:38;;;;;;;9.63;1.58;;;21.90;95.90;;;;;;5126826;27;20043;-70
2022/10/07 11:56:18;;;;;;;11.05;1.50;;;21.40;95.70;;;;;;5140811;27;20348;-71
2022/10/07 11:58:45;;;;;;;10.65;1.63;;;21.00;95.90;;;;;;5140713;27;20058;-71
2022/10/07 12:01:29;;;;;;;11.13;1.65;;;20.80;96.20;;;;;;5140333;27;20416;-71
2022/10/07 12:04:00;;;;;;;16.80;1.52;;;21.00;95.90;;;;;;5140464;27;20049;-71
2022/10/07 12:06:27;;;;;;;10.25;1.33;;;21.30;96.10;;;;;;5140506;27;20046;-71
2022/10/07 12:08:53;;;;;;;10.13;1.45;;;21.50;95.90;;;;;;5140130;27;20107;-71
2022/10/07 12:11:19;;;;;;;12.05;1.60;;;21.40;95.80;;;;;;5140364;27;20174;-71
2022/10/07 12:13:49;;;;;;;12.73;1.38;;;20.90;96.00;;;;;;5140100;27;20443;-72
2022/10/07 12:16:27;;;;;;;10.70;1.63;;;20.50;96.00;;;;;;5139937;27;20080;-71
2022/10/07 12:19:09;;;;;;;14.77;2.03;;;20.30;96.40;;;;;;5140289;27;20114;-71
2022/10/07 12:22:03;;;;;;;11.52;1.65;;;20.00;96.30;;;;;;5140219;27;20043;-71
2022/10/07 12:24:34;;;;;;;16.88;2.42;;;19.90;96.60;;;;;;5140087;27;20059;-71
2022/10/07 12:27:16;;;;;;;11.23;1.75;;;19.90;96.40;;;;;;5140062;27;20324;-72
2022/10/07 12:29:47;;;;;;;10.50;1.77;;;19.70;96.60;;;;;;5140141;27;20034;-72
2022/10/07 12:32:45;;;;;;;15.35;2.45;;;19.70;96.70;;;;;;5139669;27;20497;-71
2022/10/07 12:35:28;;;;;;;13.52;2.15;;;19.50;96.60;;;;;;5139655;27;20467;-71
2022/10/07 12:38:03;;;;;;;8.25;1.60;;;19.40;96.80;;;;;;5139844;27;20061;-71
2022/10/07 12:40:30;;;;;;;14.23;1.50;;;19.40;96.90;;;;;;5139549;27;20432;-71
2022/10/07 12:43:18;;;;;;;12.77;1.77;;;19.60;97.00;;;;;;5139580;27;20051;-71
2022/10/07 12:45:44;;;;;;;13.50;1.85;;;19.50;96.80;;;;;;5139028;27;20078;-71
2022/10/07 12:48:19;;;;;;;9.18;1.60;;;19.80;97.10;;;;;;5139327;27;20062;-71
2022/10/07 12:50:48;;;;;;;11.35;1.92;;;19.90;96.70;;;;;;5139684;27;20046;-70
2022/10/07 12:53:15;;;;;;;15.43;2.08;;;19.70;96.90;;;;;;5139298;27;20035;-70
2022/10/07 12:55:47;;;;;;;9.98;2.00;;;19.70;96.80;;;;;;5139560;27;20038;-70
2022/10/07 13:01:36;;;;;;;13.75;1.70;;;19.50;96.90;;;;;;5139387;27;20134;-72
2022/10/07 13:04:37;;;;;;;14.20;1.65;;;19.40;96.90;;;;;;5120830;27;20075;-70
2022/10/07 13:07:25;;;;;;;10.35;1.60;;;19.40;97.10;;;;;;5139347;27;20130;-69
2022/10/07 13:10:00;;;;;;;13.43;1.95;;;19.30;97.10;;;;;;5142152;27;20043;-70
2022/10/07 13:12:50;;;;;;;17.13;2.10;;;19.30;96.90;;;;;;5141124;27;20046;-71